sensor_id;sensor_type;location;lat;lon;timestamp;P1;durP1;ratioP1;P2;durP2;ratioP2
28958;SDS011;16066;0.000;0.000;2022-08-03T00:01:02;8.00;;;4.10;;
28958;SDS011;16066;0.000;0.000;2022-08-03T00:03:28;6.53;;;3.90;;
28958;SDS011;16066;0.000;0.000;2022-08-03T00:05:53;7.13;;;3.60;;
28958;SDS011;16066;0.000;0.000;2022-08-03T00:08:19;7.80;;;3.70;;
28958;SDS011;16066;0.000;0.000;2022-08-03T00:10:45;7.20;;;4.20;;
28958;SDS011;16066;0.000;0.000;2022-08-03T00:13:10;8.90;;;3.50;;
28958;SDS011;16066;0.000;0.000;2022-08-03T00:15:38;5.63;;;3.23;;
28958;SDS011;16066;0.000;0.000;2022-08-03T00:18:04;6.77;;;3.83;;
28958;SDS011;16066;0.000;0.000;2022-08-03T00:20:30;4.73;;;3.63;;
28958;SDS011;16066;0.000;0.000;2022-08-03T00:22:56;4.30;;;3.90;;
28958;SDS011;16066;0.000;0.000;2022-08-03T00:25:21;5.80;;;4.03;;
28958;SDS011;16066;0.000;0.000;2022-08-03T00:27:47;5.67;;;3.60;;
28958;SDS011;16066;0.000;0.000;2022-08-03T00:30:12;4.10;;;3.37;;
28958;SDS011;16066;0.000;0.000;2022-08-03T00:32:38;5.20;;;3.67;;
28958;SDS011;16066;0.000;0.000;2022-08-03T00:35:03;6.90;;;4.00;;
28958;SDS011;16066;0.000;0.000;2022-08-03T00:37:30;7.00;;;3.77;;
28958;SDS011;16066;0.000;0.000;2022-08-03T00:39:55;4.30;;;3.50;;
28958;SDS011;16066;0.000;0.000;2022-08-03T00:42:20;4.57;;;3.57;;
28958;SDS011;16066;0.000;0.000;2022-08-03T00:44:46;4.47;;;3.63;;
28958;SDS011;16066;0.000;0.000;2022-08-03T00:47:11;7.50;;;3.97;;
28958;SDS011;16066;0.000;0.000;2022-08-03T00:49:37;4.27;;;3.30;;
28958;SDS011;16066;0.000;0.000;2022-08-03T00:52:03;5.53;;;3.50;;
28958;SDS011;16066;0.000;0.000;2022-08-03T00:54:32;4.90;;;3.40;;
28958;SDS011;16066;0.000;0.000;2022-08-03T00:56:58;6.70;;;3.70;;
28958;SDS011;16066;0.000;0.000;2022-08-03T00:59:24;4.37;;;3.43;;
28958;SDS011;16066;0.000;0.000;2022-08-03T01:01:51;9.43;;;3.70;;
28958;SDS011;16066;0.000;0.000;2022-08-03T01:04:17;7.63;;;3.63;;
28958;SDS011;16066;0.000;0.000;2022-08-03T01:06:52;7.10;;;3.60;;
28958;SDS011;16066;0.000;0.000;2022-08-03T01:10:02;9.40;;;3.43;;
28958;SDS011;16066;0.000;0.000;2022-08-03T01:12:37;6.93;;;3.10;;
28958;SDS011;16066;0.000;0.000;2022-08-03T01:20:30;5.70;;;3.97;;
28958;SDS011;16066;0.000;0.000;2022-08-03T01:23:09;5.40;;;3.17;;
28958;SDS011;16066;0.000;0.000;2022-08-03T01:28:58;4.57;;;3.00;;
28958;SDS011;16066;0.000;0.000;2022-08-03T01:31:34;6.13;;;3.30;;
28958;SDS011;16066;0.000;0.000;2022-08-03T01:34:05;6.30;;;3.20;;
28958;SDS011;16066;0.000;0.000;2022-08-03T01:36:37;5.13;;;3.47;;
28958;SDS011;16066;0.000;0.000;2022-08-03T01:39:07;3.53;;;3.00;;
28958;SDS011;16066;0.000;0.000;2022-08-03T01:41:35;4.43;;;3.20;;
28958;SDS011;16066;0.000;0.000;2022-08-03T01:44:07;5.30;;;3.47;;
28958;SDS011;16066;0.000;0.000;2022-08-03T01:46:34;3.70;;;3.07;;
28958;SDS011;16066;0.000;0.000;2022-08-03T01:49:00;9.30;;;3.67;;
28958;SDS011;16066;0.000;0.000;2022-08-03T01:51:28;5.60;;;3.87;;
28958;SDS011;16066;0.000;0.000;2022-08-03T01:53:55;4.80;;;3.53;;
28958;SDS011;16066;0.000;0.000;2022-08-03T01:56:23;4.70;;;3.80;;
28958;SDS011;16066;0.000;0.000;2022-08-03T01:58:52;3.43;;;2.93;;
28958;SDS011;16066;0.000;0.000;2022-08-03T02:01:19;6.93;;;3.60;;
28958;SDS011;16066;0.000;0.000;2022-08-03T02:03:46;3.40;;;2.97;;
28958;SDS011;16066;0.000;0.000;2022-08-03T02:06:14;4.40;;;3.97;;
28958;SDS011;16066;0.000;0.000;2022-08-03T02:08:41;5.70;;;3.47;;
28958;SDS011;16066;0.000;0.000;2022-08-03T02:11:08;5.33;;;3.23;;
28958;SDS011;16066;0.000;0.000;2022-08-03T02:13:34;3.60;;;2.97;;
28958;SDS011;16066;0.000;0.000;2022-08-03T02:16:02;4.00;;;3.23;;
28958;SDS011;16066;0.000;0.000;2022-08-03T02:18:29;3.77;;;2.83;;
28958;SDS011;16066;0.000;0.000;2022-08-03T02:20:57;4.83;;;3.20;;
28958;SDS011;16066;0.000;0.000;2022-08-03T02:23:24;6.07;;;3.13;;
28958;SDS011;16066;0.000;0.000;2022-08-03T02:25:51;4.20;;;3.57;;
28958;SDS011;16066;0.000;0.000;2022-08-03T02:28:23;5.20;;;3.33;;
28958;SDS011;16066;0.000;0.000;2022-08-03T02:30:53;5.10;;;3.90;;
28958;SDS011;16066;0.000;0.000;2022-08-03T02:33:24;4.87;;;3.13;;
28958;SDS011;16066;0.000;0.000;2022-08-03T02:35:56;7.30;;;3.90;;
28958;SDS011;16066;0.000;0.000;2022-08-03T02:38:25;6.43;;;3.83;;
28958;SDS011;16066;0.000;0.000;2022-08-03T02:40:55;2.97;;;2.70;;
28958;SDS011;16066;0.000;0.000;2022-08-03T02:43:22;5.37;;;3.27;;
28958;SDS011;16066;0.000;0.000;2022-08-03T02:45:50;5.97;;;3.83;;
28958;SDS011;16066;0.000;0.000;2022-08-03T02:48:17;6.60;;;3.93;;
28958;SDS011;16066;0.000;0.000;2022-08-03T02:50:47;3.70;;;3.00;;
28958;SDS011;16066;0.000;0.000;2022-08-03T02:53:15;6.57;;;3.50;;
28958;SDS011;16066;0.000;0.000;2022-08-03T02:55:42;3.87;;;3.47;;
28958;SDS011;16066;0.000;0.000;2022-08-03T02:58:10;4.50;;;3.33;;
28958;SDS011;16066;0.000;0.000;2022-08-03T03:00:37;3.80;;;3.07;;
28958;SDS011;16066;0.000;0.000;2022-08-03T03:03:04;4.63;;;3.63;;
28958;SDS011;16066;0.000;0.000;2022-08-03T03:05:30;4.63;;;3.10;;
28958;SDS011;16066;0.000;0.000;2022-08-03T03:07:57;3.70;;;3.27;;
28958;SDS011;16066;0.000;0.000;2022-08-03T03:10:23;4.83;;;2.73;;
28958;SDS011;16066;0.000;0.000;2022-08-03T03:12:50;3.30;;;3.00;;
28958;SDS011;16066;0.000;0.000;2022-08-03T03:15:19;4.60;;;3.43;;
28958;SDS011;16066;0.000;0.000;2022-08-03T03:17:45;3.67;;;3.30;;
28958;SDS011;16066;0.000;0.000;2022-08-03T03:20:13;4.50;;;3.10;;
28958;SDS011;16066;0.000;0.000;2022-08-03T03:22:40;4.50;;;3.47;;
28958;SDS011;16066;0.000;0.000;2022-08-03T03:25:07;5.87;;;4.90;;
28958;SDS011;16066;0.000;0.000;2022-08-03T03:27:34;5.77;;;3.27;;
28958;SDS011;16066;0.000;0.000;2022-08-03T03:29:59;3.80;;;3.40;;
28958;SDS011;16066;0.000;0.000;2022-08-03T03:32:29;5.50;;;3.37;;
28958;SDS011;16066;0.000;0.000;2022-08-03T03:34:56;6.67;;;3.47;;
28958;SDS011;16066;0.000;0.000;2022-08-03T03:37:25;4.63;;;3.30;;
28958;SDS011;16066;0.000;0.000;2022-08-03T03:39:54;5.60;;;3.40;;
28958;SDS011;16066;0.000;0.000;2022-08-03T03:42:20;4.77;;;3.33;;
28958;SDS011;16066;0.000;0.000;2022-08-03T03:44:46;5.40;;;3.30;;
28958;SDS011;16066;0.000;0.000;2022-08-03T03:47:12;4.67;;;3.53;;
28958;SDS011;16066;0.000;0.000;2022-08-03T03:49:39;4.40;;;3.50;;
28958;SDS011;16066;0.000;0.000;2022-08-03T03:52:06;7.50;;;3.50;;
28958;SDS011;16066;0.000;0.000;2022-08-03T03:54:39;3.93;;;3.43;;
28958;SDS011;16066;0.000;0.000;2022-08-03T03:57:05;7.47;;;3.50;;
28958;SDS011;16066;0.000;0.000;2022-08-03T03:59:32;3.77;;;3.40;;
28958;SDS011;16066;0.000;0.000;2022-08-03T04:01:58;7.97;;;3.73;;
28958;SDS011;16066;0.000;0.000;2022-08-03T04:04:24;4.00;;;3.43;;
28958;SDS011;16066;0.000;0.000;2022-08-03T04:07:08;5.50;;;3.60;;
28958;SDS011;16066;0.000;0.000;2022-08-03T04:09:53;7.30;;;4.20;;
28958;SDS011;16066;0.000;0.000;2022-08-03T04:12:38;4.90;;;3.50;;
28958;SDS011;16066;0.000;0.000;2022-08-03T04:15:15;11.70;;;5.20;;
28958;SDS011;16066;0.000;0.000;2022-08-03T04:17:44;12.03;;;7.60;;
28958;SDS011;16066;0.000;0.000;2022-08-03T04:20:14;11.10;;;7.43;;
28958;SDS011;16066;0.000;0.000;2022-08-03T04:22:42;9.80;;;7.00;;
28958;SDS011;16066;0.000;0.000;2022-08-03T04:25:09;8.73;;;6.20;;
28958;SDS011;16066;0.000;0.000;2022-08-03T04:27:42;8.47;;;6.60;;
28958;SDS011;16066;0.000;0.000;2022-08-03T04:30:09;11.23;;;6.70;;
28958;SDS011;16066;0.000;0.000;2022-08-03T04:32:36;9.30;;;7.00;;
28958;SDS011;16066;0.000;0.000;2022-08-03T04:35:04;8.40;;;6.63;;
28958;SDS011;16066;0.000;0.000;2022-08-03T04:37:36;8.00;;;6.50;;
28958;SDS011;16066;0.000;0.000;2022-08-03T04:40:13;7.20;;;5.67;;
28958;SDS011;16066;0.000;0.000;2022-08-03T04:42:41;8.83;;;4.70;;
28958;SDS011;16066;0.000;0.000;2022-08-03T04:45:10;12.20;;;5.13;;
28958;SDS011;16066;0.000;0.000;2022-08-03T04:47:37;5.50;;;4.63;;
28958;SDS011;16066;0.000;0.000;2022-08-03T04:50:04;6.10;;;4.60;;
28958;SDS011;16066;0.000;0.000;2022-08-03T04:52:31;10.63;;;5.30;;
28958;SDS011;16066;0.000;0.000;2022-08-03T04:54:58;6.83;;;5.30;;
28958;SDS011;16066;0.000;0.000;2022-08-03T04:57:24;8.47;;;4.77;;
28958;SDS011;16066;0.000;0.000;2022-08-03T04:59:51;7.70;;;5.03;;
28958;SDS011;16066;0.000;0.000;2022-08-03T05:02:20;4.67;;;3.63;;
28958;SDS011;16066;0.000;0.000;2022-08-03T05:04:47;11.47;;;5.33;;
28958;SDS011;16066;0.000;0.000;2022-08-03T05:07:13;5.70;;;5.00;;
28958;SDS011;16066;0.000;0.000;2022-08-03T05:09:40;6.30;;;4.50;;
28958;SDS011;16066;0.000;0.000;2022-08-03T05:12:07;7.40;;;4.97;;
28958;SDS011;16066;0.000;0.000;2022-08-03T05:14:33;6.63;;;4.77;;
28958;SDS011;16066;0.000;0.000;2022-08-03T05:17:02;7.20;;;4.60;;
28958;SDS011;16066;0.000;0.000;2022-08-03T05:19:28;5.00;;;3.53;;
28958;SDS011;16066;0.000;0.000;2022-08-03T05:21:54;6.27;;;4.10;;
28958;SDS011;16066;0.000;0.000;2022-08-03T05:24:20;6.40;;;5.40;;
28958;SDS011;16066;0.000;0.000;2022-08-03T05:26:46;7.17;;;4.43;;
28958;SDS011;16066;0.000;0.000;2022-08-03T05:29:12;5.30;;;3.90;;
28958;SDS011;16066;0.000;0.000;2022-08-03T05:31:38;8.40;;;4.40;;
28958;SDS011;16066;0.000;0.000;2022-08-03T05:34:04;4.43;;;3.60;;
28958;SDS011;16066;0.000;0.000;2022-08-03T05:36:30;6.73;;;4.37;;
28958;SDS011;16066;0.000;0.000;2022-08-03T05:38:56;10.37;;;4.20;;
28958;SDS011;16066;0.000;0.000;2022-08-03T05:41:22;6.20;;;4.00;;
28958;SDS011;16066;0.000;0.000;2022-08-03T05:43:48;6.43;;;3.77;;
28958;SDS011;16066;0.000;0.000;2022-08-03T05:46:14;6.10;;;4.23;;
28958;SDS011;16066;0.000;0.000;2022-08-03T05:48:40;7.83;;;4.57;;
28958;SDS011;16066;0.000;0.000;2022-08-03T05:51:07;10.60;;;4.00;;
28958;SDS011;16066;0.000;0.000;2022-08-03T05:53:35;5.70;;;3.73;;
28958;SDS011;16066;0.000;0.000;2022-08-03T05:56:01;6.13;;;3.70;;
28958;SDS011;16066;0.000;0.000;2022-08-03T05:58:27;7.23;;;4.20;;
28958;SDS011;16066;0.000;0.000;2022-08-03T06:00:53;5.30;;;3.90;;
28958;SDS011;16066;0.000;0.000;2022-08-03T06:03:19;7.97;;;4.63;;
28958;SDS011;16066;0.000;0.000;2022-08-03T06:05:45;5.70;;;3.73;;
28958;SDS011;16066;0.000;0.000;2022-08-03T06:08:11;4.63;;;3.93;;
28958;SDS011;16066;0.000;0.000;2022-08-03T06:10:37;6.87;;;4.20;;
28958;SDS011;16066;0.000;0.000;2022-08-03T06:13:03;6.50;;;3.87;;
28958;SDS011;16066;0.000;0.000;2022-08-03T06:15:29;8.37;;;3.97;;
28958;SDS011;16066;0.000;0.000;2022-08-03T06:17:57;7.70;;;4.27;;
28958;SDS011;16066;0.000;0.000;2022-08-03T06:20:23;6.63;;;3.60;;
28958;SDS011;16066;0.000;0.000;2022-08-03T06:22:49;7.00;;;3.93;;
28958;SDS011;16066;0.000;0.000;2022-08-03T06:25:15;4.77;;;4.30;;
28958;SDS011;16066;0.000;0.000;2022-08-03T06:27:42;10.40;;;4.67;;
28958;SDS011;16066;0.000;0.000;2022-08-03T06:30:08;6.30;;;4.17;;
28958;SDS011;16066;0.000;0.000;2022-08-03T06:32:38;6.10;;;4.40;;
28958;SDS011;16066;0.000;0.000;2022-08-03T06:35:05;4.60;;;4.13;;
28958;SDS011;16066;0.000;0.000;2022-08-03T06:40:27;7.47;;;4.17;;
28958;SDS011;16066;0.000;0.000;2022-08-03T06:42:57;4.63;;;3.77;;
28958;SDS011;16066;0.000;0.000;2022-08-03T06:45:24;5.83;;;3.80;;
28958;SDS011;16066;0.000;0.000;2022-08-03T06:48:00;4.73;;;3.50;;
28958;SDS011;16066;0.000;0.000;2022-08-03T06:50:27;4.30;;;3.50;;
28958;SDS011;16066;0.000;0.000;2022-08-03T06:52:53;5.63;;;3.40;;
28958;SDS011;16066;0.000;0.000;2022-08-03T06:55:19;6.10;;;3.70;;
28958;SDS011;16066;0.000;0.000;2022-08-03T06:57:45;4.50;;;3.63;;
28958;SDS011;16066;0.000;0.000;2022-08-03T07:00:11;3.90;;;3.00;;
28958;SDS011;16066;0.000;0.000;2022-08-03T07:02:38;6.63;;;3.90;;
28958;SDS011;16066;0.000;0.000;2022-08-03T07:05:04;8.80;;;4.07;;
28958;SDS011;16066;0.000;0.000;2022-08-03T07:07:31;4.00;;;2.97;;
28958;SDS011;16066;0.000;0.000;2022-08-03T07:09:57;7.07;;;2.77;;
28958;SDS011;16066;0.000;0.000;2022-08-03T07:12:22;3.33;;;2.90;;
28958;SDS011;16066;0.000;0.000;2022-08-03T07:14:48;4.53;;;3.50;;
28958;SDS011;16066;0.000;0.000;2022-08-03T07:17:13;4.70;;;3.30;;
28958;SDS011;16066;0.000;0.000;2022-08-03T07:19:39;4.50;;;3.37;;
28958;SDS011;16066;0.000;0.000;2022-08-03T07:22:05;3.60;;;2.57;;
28958;SDS011;16066;0.000;0.000;2022-08-03T07:24:30;5.30;;;2.70;;
28958;SDS011;16066;0.000;0.000;2022-08-03T07:26:56;5.10;;;3.07;;
28958;SDS011;16066;0.000;0.000;2022-08-03T07:29:21;3.00;;;2.70;;
28958;SDS011;16066;0.000;0.000;2022-08-03T07:31:47;7.90;;;3.23;;
28958;SDS011;16066;0.000;0.000;2022-08-03T07:34:12;4.93;;;3.17;;
28958;SDS011;16066;0.000;0.000;2022-08-03T07:36:38;6.47;;;2.93;;
28958;SDS011;16066;0.000;0.000;2022-08-03T07:39:04;2.93;;;2.63;;
28958;SDS011;16066;0.000;0.000;2022-08-03T07:41:29;5.20;;;2.80;;
28958;SDS011;16066;0.000;0.000;2022-08-03T07:43:55;5.07;;;2.60;;
28958;SDS011;16066;0.000;0.000;2022-08-03T07:46:21;3.67;;;3.20;;
28958;SDS011;16066;0.000;0.000;2022-08-03T07:48:47;3.10;;;2.80;;
28958;SDS011;16066;0.000;0.000;2022-08-03T07:51:12;4.30;;;3.17;;
28958;SDS011;16066;0.000;0.000;2022-08-03T07:53:38;3.33;;;2.60;;
28958;SDS011;16066;0.000;0.000;2022-08-03T07:56:03;2.73;;;2.40;;
28958;SDS011;16066;0.000;0.000;2022-08-03T07:58:29;5.33;;;2.63;;
28958;SDS011;16066;0.000;0.000;2022-08-03T08:00:55;2.83;;;2.50;;
28958;SDS011;16066;0.000;0.000;2022-08-03T08:03:20;4.33;;;2.50;;
28958;SDS011;16066;0.000;0.000;2022-08-03T08:05:46;5.53;;;2.53;;
28958;SDS011;16066;0.000;0.000;2022-08-03T08:08:12;3.43;;;2.63;;
28958;SDS011;16066;0.000;0.000;2022-08-03T08:10:37;7.07;;;3.20;;
28958;SDS011;16066;0.000;0.000;2022-08-03T08:13:03;6.60;;;2.43;;
28958;SDS011;16066;0.000;0.000;2022-08-03T08:15:28;4.73;;;3.20;;
28958;SDS011;16066;0.000;0.000;2022-08-03T08:17:56;3.30;;;2.70;;
28958;SDS011;16066;0.000;0.000;2022-08-03T08:20:25;5.63;;;2.50;;
28958;SDS011;16066;0.000;0.000;2022-08-03T08:22:54;3.00;;;2.50;;
28958;SDS011;16066;0.000;0.000;2022-08-03T08:25:26;6.10;;;2.63;;
28958;SDS011;16066;0.000;0.000;2022-08-03T08:27:53;4.40;;;2.67;;
28958;SDS011;16066;0.000;0.000;2022-08-03T08:30:19;4.77;;;2.67;;
28958;SDS011;16066;0.000;0.000;2022-08-03T08:32:47;2.63;;;2.30;;
28958;SDS011;16066;0.000;0.000;2022-08-03T08:35:13;3.57;;;2.47;;
28958;SDS011;16066;0.000;0.000;2022-08-03T08:37:39;2.63;;;2.07;;
28958;SDS011;16066;0.000;0.000;2022-08-03T08:40:06;3.87;;;2.57;;
28958;SDS011;16066;0.000;0.000;2022-08-03T08:42:33;3.13;;;2.43;;
28958;SDS011;16066;0.000;0.000;2022-08-03T08:45:00;3.00;;;2.40;;
28958;SDS011;16066;0.000;0.000;2022-08-03T08:47:29;2.80;;;2.50;;
28958;SDS011;16066;0.000;0.000;2022-08-03T08:49:56;7.30;;;3.37;;
28958;SDS011;16066;0.000;0.000;2022-08-03T08:52:26;2.10;;;1.90;;
28958;SDS011;16066;0.000;0.000;2022-08-03T08:54:57;3.97;;;2.53;;
28958;SDS011;16066;0.000;0.000;2022-08-03T08:57:25;2.93;;;2.53;;
28958;SDS011;16066;0.000;0.000;2022-08-03T08:59:54;3.00;;;2.33;;
28958;SDS011;16066;0.000;0.000;2022-08-03T09:02:21;2.80;;;2.17;;
28958;SDS011;16066;0.000;0.000;2022-08-03T09:04:48;3.17;;;2.10;;
28958;SDS011;16066;0.000;0.000;2022-08-03T09:07:14;7.03;;;2.33;;
28958;SDS011;16066;0.000;0.000;2022-08-03T09:09:40;3.30;;;2.43;;
28958;SDS011;16066;0.000;0.000;2022-08-03T09:12:06;6.03;;;2.10;;
28958;SDS011;16066;0.000;0.000;2022-08-03T09:14:32;2.43;;;1.90;;
28958;SDS011;16066;0.000;0.000;2022-08-03T09:16:59;2.80;;;2.50;;
28958;SDS011;16066;0.000;0.000;2022-08-03T09:19:26;7.13;;;2.50;;
28958;SDS011;16066;0.000;0.000;2022-08-03T09:22:06;2.93;;;2.37;;
28958;SDS011;16066;0.000;0.000;2022-08-03T09:24:55;4.10;;;2.80;;
28958;SDS011;16066;0.000;0.000;2022-08-03T09:27:23;3.17;;;2.20;;
28958;SDS011;16066;0.000;0.000;2022-08-03T09:29:49;7.13;;;2.97;;
28958;SDS011;16066;0.000;0.000;2022-08-03T09:32:18;5.13;;;2.63;;
28958;SDS011;16066;0.000;0.000;2022-08-03T09:34:46;3.70;;;2.40;;
28958;SDS011;16066;0.000;0.000;2022-08-03T09:37:14;3.00;;;2.33;;
28958;SDS011;16066;0.000;0.000;2022-08-03T09:39:41;5.10;;;2.57;;
28958;SDS011;16066;0.000;0.000;2022-08-03T09:44:43;5.60;;;3.20;;
28958;SDS011;16066;0.000;0.000;2022-08-03T09:47:11;5.60;;;2.40;;
28958;SDS011;16066;0.000;0.000;2022-08-03T09:49:39;2.90;;;2.60;;
28958;SDS011;16066;0.000;0.000;2022-08-03T09:52:15;3.80;;;2.80;;
28958;SDS011;16066;0.000;0.000;2022-08-03T09:54:43;7.30;;;3.57;;
28958;SDS011;16066;0.000;0.000;2022-08-03T09:57:24;6.10;;;2.27;;
28958;SDS011;16066;0.000;0.000;2022-08-03T09:59:52;3.93;;;2.40;;
28958;SDS011;16066;0.000;0.000;2022-08-03T10:02:23;4.20;;;2.90;;
28958;SDS011;16066;0.000;0.000;2022-08-03T10:04:51;3.23;;;2.43;;
28958;SDS011;16066;0.000;0.000;2022-08-03T10:07:18;4.67;;;2.60;;
28958;SDS011;16066;0.000;0.000;2022-08-03T10:09:55;3.97;;;2.70;;
28958;SDS011;16066;0.000;0.000;2022-08-03T10:12:23;4.33;;;2.60;;
28958;SDS011;16066;0.000;0.000;2022-08-03T10:14:49;4.40;;;2.67;;
28958;SDS011;16066;0.000;0.000;2022-08-03T10:17:17;3.83;;;2.30;;
28958;SDS011;16066;0.000;0.000;2022-08-03T10:19:43;7.13;;;2.73;;
28958;SDS011;16066;0.000;0.000;2022-08-03T10:22:10;7.63;;;2.30;;
28958;SDS011;16066;0.000;0.000;2022-08-03T10:24:36;3.23;;;2.40;;
28958;SDS011;16066;0.000;0.000;2022-08-03T10:27:06;4.40;;;2.47;;
28958;SDS011;16066;0.000;0.000;2022-08-03T10:29:35;6.10;;;1.90;;
28958;SDS011;16066;0.000;0.000;2022-08-03T10:32:03;2.83;;;2.20;;
28958;SDS011;16066;0.000;0.000;2022-08-03T10:34:34;5.80;;;2.70;;
28958;SDS011;16066;0.000;0.000;2022-08-03T10:37:06;5.87;;;2.57;;
28958;SDS011;16066;0.000;0.000;2022-08-03T10:39:34;2.67;;;2.40;;
28958;SDS011;16066;0.000;0.000;2022-08-03T10:42:00;2.60;;;2.40;;
28958;SDS011;16066;0.000;0.000;2022-08-03T10:44:28;2.57;;;2.37;;
28958;SDS011;16066;0.000;0.000;2022-08-03T10:47:00;3.50;;;2.40;;
28958;SDS011;16066;0.000;0.000;2022-08-03T10:49:26;4.17;;;2.80;;
28958;SDS011;16066;0.000;0.000;2022-08-03T10:51:52;4.27;;;2.23;;
28958;SDS011;16066;0.000;0.000;2022-08-03T10:57:01;4.57;;;2.30;;
28958;SDS011;16066;0.000;0.000;2022-08-03T11:02:20;8.30;;;2.60;;
28958;SDS011;16066;0.000;0.000;2022-08-03T11:04:46;7.07;;;3.00;;
28958;SDS011;16066;0.000;0.000;2022-08-03T11:09:42;3.97;;;2.67;;
28958;SDS011;16066;0.000;0.000;2022-08-03T11:12:20;16.77;;;7.83;;
28958;SDS011;16066;0.000;0.000;2022-08-03T11:14:48;72.40;;;33.50;;
28958;SDS011;16066;0.000;0.000;2022-08-03T11:17:14;77.20;;;34.60;;
28958;SDS011;16066;0.000;0.000;2022-08-03T11:19:43;47.53;;;24.40;;
28958;SDS011;16066;0.000;0.000;2022-08-03T11:22:13;115.80;;;58.03;;
28958;SDS011;16066;0.000;0.000;2022-08-03T11:40:32;279.83;;;141.97;;
28958;SDS011;16066;0.000;0.000;2022-08-03T11:43:09;139.53;;;77.17;;
28958;SDS011;16066;0.000;0.000;2022-08-03T11:45:35;169.20;;;85.43;;
28958;SDS011;16066;0.000;0.000;2022-08-03T11:48:12;148.77;;;77.90;;
28958;SDS011;16066;0.000;0.000;2022-08-03T11:50:40;143.37;;;76.63;;
28958;SDS011;16066;0.000;0.000;2022-08-03T11:53:11;189.17;;;99.13;;
28958;SDS011;16066;0.000;0.000;2022-08-03T11:55:38;173.67;;;91.27;;
28958;SDS011;16066;0.000;0.000;2022-08-03T11:58:07;198.43;;;113.13;;
28958;SDS011;16066;0.000;0.000;2022-08-03T12:00:32;221.73;;;119.57;;
28958;SDS011;16066;0.000;0.000;2022-08-03T12:02:59;162.73;;;89.80;;
28958;SDS011;16066;0.000;0.000;2022-08-03T12:05:50;153.20;;;81.80;;
28958;SDS011;16066;0.000;0.000;2022-08-03T12:08:17;136.33;;;74.03;;
28958;SDS011;16066;0.000;0.000;2022-08-03T12:10:54;98.77;;;55.00;;
28958;SDS011;16066;0.000;0.000;2022-08-03T12:13:21;151.83;;;78.57;;
28958;SDS011;16066;0.000;0.000;2022-08-03T12:15:51;171.23;;;94.20;;
28958;SDS011;16066;0.000;0.000;2022-08-03T12:18:22;174.23;;;97.90;;
28958;SDS011;16066;0.000;0.000;2022-08-03T12:20:49;181.73;;;101.40;;
28958;SDS011;16066;0.000;0.000;2022-08-03T12:23:16;158.50;;;88.50;;
28958;SDS011;16066;0.000;0.000;2022-08-03T12:25:42;140.03;;;81.47;;
28958;SDS011;16066;0.000;0.000;2022-08-03T12:28:16;139.20;;;82.00;;
28958;SDS011;16066;0.000;0.000;2022-08-03T12:30:44;136.73;;;79.10;;
28958;SDS011;16066;0.000;0.000;2022-08-03T12:33:15;117.97;;;63.43;;
28958;SDS011;16066;0.000;0.000;2022-08-03T12:36:06;109.23;;;62.73;;
28958;SDS011;16066;0.000;0.000;2022-08-03T12:38:34;101.33;;;57.30;;
28958;SDS011;16066;0.000;0.000;2022-08-03T12:41:02;76.93;;;41.67;;
28958;SDS011;16066;0.000;0.000;2022-08-03T12:43:33;77.60;;;49.70;;
28958;SDS011;16066;0.000;0.000;2022-08-03T12:46:09;69.97;;;42.77;;
28958;SDS011;16066;0.000;0.000;2022-08-03T12:48:36;81.80;;;46.07;;
28958;SDS011;16066;0.000;0.000;2022-08-03T12:54:06;79.37;;;44.10;;
28958;SDS011;16066;0.000;0.000;2022-08-03T12:56:32;68.13;;;40.50;;
28958;SDS011;16066;0.000;0.000;2022-08-03T12:58:58;64.30;;;39.00;;
28958;SDS011;16066;0.000;0.000;2022-08-03T13:01:24;59.23;;;34.00;;
28958;SDS011;16066;0.000;0.000;2022-08-03T13:03:51;51.87;;;31.83;;
28958;SDS011;16066;0.000;0.000;2022-08-03T13:06:22;49.40;;;30.80;;
28958;SDS011;16066;0.000;0.000;2022-08-03T13:08:49;41.53;;;27.23;;
28958;SDS011;16066;0.000;0.000;2022-08-03T13:11:26;35.70;;;21.50;;
28958;SDS011;16066;0.000;0.000;2022-08-03T13:13:53;36.37;;;22.73;;
28958;SDS011;16066;0.000;0.000;2022-08-03T13:16:19;33.43;;;20.40;;
28958;SDS011;16066;0.000;0.000;2022-08-03T13:18:46;33.13;;;21.00;;
28958;SDS011;16066;0.000;0.000;2022-08-03T13:21:13;33.73;;;21.90;;
28958;SDS011;16066;0.000;0.000;2022-08-03T13:23:39;41.20;;;24.83;;
28958;SDS011;16066;0.000;0.000;2022-08-03T13:26:06;35.70;;;20.70;;
28958;SDS011;16066;0.000;0.000;2022-08-03T13:28:32;35.70;;;16.90;;
28958;SDS011;16066;0.000;0.000;2022-08-03T13:30:57;24.17;;;15.43;;
28958;SDS011;16066;0.000;0.000;2022-08-03T13:33:23;22.63;;;13.27;;
28958;SDS011;16066;0.000;0.000;2022-08-03T13:35:50;21.00;;;12.80;;
28958;SDS011;16066;0.000;0.000;2022-08-03T13:38:15;32.77;;;16.73;;
28958;SDS011;16066;0.000;0.000;2022-08-03T13:40:41;28.57;;;17.63;;
28958;SDS011;16066;0.000;0.000;2022-08-03T13:43:07;24.73;;;14.60;;
28958;SDS011;16066;0.000;0.000;2022-08-03T13:45:32;26.50;;;15.87;;
28958;SDS011;16066;0.000;0.000;2022-08-03T13:47:59;23.17;;;13.00;;
28958;SDS011;16066;0.000;0.000;2022-08-03T13:50:25;28.40;;;13.10;;
28958;SDS011;16066;0.000;0.000;2022-08-03T13:52:51;15.87;;;11.17;;
28958;SDS011;16066;0.000;0.000;2022-08-03T13:55:16;19.40;;;12.90;;
28958;SDS011;16066;0.000;0.000;2022-08-03T13:57:42;14.30;;;9.03;;
28958;SDS011;16066;0.000;0.000;2022-08-03T14:00:07;13.60;;;9.17;;
28958;SDS011;16066;0.000;0.000;2022-08-03T14:02:34;20.17;;;9.17;;
28958;SDS011;16066;0.000;0.000;2022-08-03T14:04:59;15.47;;;7.40;;
28958;SDS011;16066;0.000;0.000;2022-08-03T14:07:25;9.70;;;6.57;;
28958;SDS011;16066;0.000;0.000;2022-08-03T14:09:50;7.50;;;5.90;;
28958;SDS011;16066;0.000;0.000;2022-08-03T14:12:16;10.50;;;7.00;;
28958;SDS011;16066;0.000;0.000;2022-08-03T14:14:41;11.47;;;6.57;;
28958;SDS011;16066;0.000;0.000;2022-08-03T14:17:07;10.80;;;7.10;;
28958;SDS011;16066;0.000;0.000;2022-08-03T14:19:32;11.23;;;7.50;;
28958;SDS011;16066;0.000;0.000;2022-08-03T14:21:58;14.70;;;8.17;;
28958;SDS011;16066;0.000;0.000;2022-08-03T14:24:23;11.13;;;8.13;;
28958;SDS011;16066;0.000;0.000;2022-08-03T14:26:49;13.40;;;7.30;;
28958;SDS011;16066;0.000;0.000;2022-08-03T14:29:14;13.97;;;7.30;;
28958;SDS011;16066;0.000;0.000;2022-08-03T14:31:40;13.53;;;6.63;;
28958;SDS011;16066;0.000;0.000;2022-08-03T14:34:05;8.87;;;5.33;;
28958;SDS011;16066;0.000;0.000;2022-08-03T14:36:31;9.30;;;5.97;;
28958;SDS011;16066;0.000;0.000;2022-08-03T14:38:56;7.70;;;5.40;;
28958;SDS011;16066;0.000;0.000;2022-08-03T14:41:22;6.80;;;4.53;;
28958;SDS011;16066;0.000;0.000;2022-08-03T14:43:47;7.07;;;5.17;;
28958;SDS011;16066;0.000;0.000;2022-08-03T14:46:13;8.63;;;5.30;;
28958;SDS011;16066;0.000;0.000;2022-08-03T14:48:39;10.17;;;5.80;;
28958;SDS011;16066;0.000;0.000;2022-08-03T14:51:04;7.23;;;5.27;;
28958;SDS011;16066;0.000;0.000;2022-08-03T14:53:30;7.63;;;5.27;;
28958;SDS011;16066;0.000;0.000;2022-08-03T14:55:56;10.00;;;4.50;;
28958;SDS011;16066;0.000;0.000;2022-08-03T14:58:22;8.20;;;5.13;;
28958;SDS011;16066;0.000;0.000;2022-08-03T15:00:49;10.37;;;7.00;;
28958;SDS011;16066;0.000;0.000;2022-08-03T15:03:16;10.13;;;6.80;;
28958;SDS011;16066;0.000;0.000;2022-08-03T15:05:48;13.60;;;6.93;;
28958;SDS011;16066;0.000;0.000;2022-08-03T15:08:18;11.30;;;6.93;;
28958;SDS011;16066;0.000;0.000;2022-08-03T15:10:44;7.90;;;5.20;;
28958;SDS011;16066;0.000;0.000;2022-08-03T15:13:10;7.77;;;4.93;;
28958;SDS011;16066;0.000;0.000;2022-08-03T15:15:36;8.70;;;5.37;;
28958;SDS011;16066;0.000;0.000;2022-08-03T15:18:02;8.40;;;5.77;;
28958;SDS011;16066;0.000;0.000;2022-08-03T15:20:27;8.10;;;6.20;;
28958;SDS011;16066;0.000;0.000;2022-08-03T15:22:53;9.50;;;4.60;;
28958;SDS011;16066;0.000;0.000;2022-08-03T15:25:18;10.87;;;3.80;;
28958;SDS011;16066;0.000;0.000;2022-08-03T15:27:44;7.30;;;4.73;;
28958;SDS011;16066;0.000;0.000;2022-08-03T15:30:10;4.33;;;3.40;;
28958;SDS011;16066;0.000;0.000;2022-08-03T15:32:35;3.27;;;2.83;;
28958;SDS011;16066;0.000;0.000;2022-08-03T15:35:01;6.67;;;3.43;;
28958;SDS011;16066;0.000;0.000;2022-08-03T15:37:27;10.73;;;4.80;;
28958;SDS011;16066;0.000;0.000;2022-08-03T15:39:52;6.00;;;4.40;;